sensor_id;sensor_type;location;lat;lon;timestamp;pressure;altitude;pressure_sealevel;temperature;humidity
40205;BME280;26963;42.666;23.366;2022-08-19T00:01:44;94699.94;;;24.96;43.85
40205;BME280;26963;42.666;23.366;2022-08-19T00:04:15;94691.38;;;24.90;43.70
40205;BME280;26963;42.666;23.366;2022-08-19T00:06:42;94650.69;;;24.71;43.50
40205;BME280;26963;42.666;23.366;2022-08-19T00:09:14;94695.28;;;24.89;43.69
40205;BME280;26963;42.666;23.366;2022-08-19T00:11:42;94706.59;;;24.77;45.12
40205;BME280;26963;42.666;23.366;2022-08-19T00:14:10;94702.28;;;24.76;45.30
40205;BME280;26963;42.666;23.366;2022-08-19T00:16:37;94703.47;;;24.68;45.52
40205;BME280;26963;42.666;23.366;2022-08-19T00:19:04;94701.09;;;24.70;44.76
40205;BME280;26963;42.666;23.366;2022-08-19T00:21:32;94674.09;;;24.54;44.65
40205;BME280;26963;42.666;23.366;2022-08-19T00:24:01;94713.22;;;24.76;44.33
40205;BME280;26963;42.666;23.366;2022-08-19T00:26:27;94668.63;;;24.50;44.96
40205;BME280;26963;42.666;23.366;2022-08-19T00:28:56;94690.16;;;24.70;45.41
40205;BME280;26963;42.666;23.366;2022-08-19T00:31:22;94713.63;;;24.82;44.78
40205;BME280;26963;42.666;23.366;2022-08-19T00:33:47;94669.41;;;24.43;45.21
40205;BME280;26963;42.666;23.366;2022-08-19T00:36:31;94688.16;;;24.52;45.58
40205;BME280;26963;42.666;23.366;2022-08-19T00:38:58;94712.84;;;24.70;45.90
40205;BME280;26963;42.666;23.366;2022-08-19T00:41:24;94717.91;;;24.72;46.40
40205;BME280;26963;42.666;23.366;2022-08-19T00:44:04;94725.72;;;24.66;45.62
40205;BME280;26963;42.666;23.366;2022-08-19T00:46:34;94710.06;;;24.59;45.43
40205;BME280;26963;42.666;23.366;2022-08-19T00:49:06;94708.47;;;24.44;45.70
40205;BME280;26963;42.666;23.366;2022-08-19T00:51:37;94717.06;;;24.46;45.67
40205;BME280;26963;42.666;23.366;2022-08-19T00:54:03;94698.31;;;24.37;45.24
40205;BME280;26963;42.666;23.366;2022-08-19T00:56:30;94711.94;;;24.41;45.58
40205;BME280;26963;42.666;23.366;2022-08-19T00:59:00;94694.78;;;24.30;45.57
40205;BME280;26963;42.666;23.366;2022-08-19T01:01:27;94579.31;;;23.48;45.22
40205;BME280;26963;42.666;23.366;2022-08-19T01:03:52;94706.47;;;24.26;45.36
40205;BME280;26963;42.666;23.366;2022-08-19T01:06:21;94697.03;;;24.06;46.76
40205;BME280;26963;42.666;23.366;2022-08-19T01:08:47;94706.81;;;24.07;46.17
40205;BME280;26963;42.666;23.366;2022-08-19T01:11:13;94710.69;;;24.06;45.94
40205;BME280;26963;42.666;23.366;2022-08-19T01:13:41;94714.59;;;24.05;46.53
40205;BME280;26963;42.666;23.366;2022-08-19T01:16:09;94715.72;;;23.97;47.54
40205;BME280;26963;42.666;23.366;2022-08-19T01:18:39;94702.00;;;23.89;47.88
40205;BME280;26963;42.666;23.366;2022-08-19T01:21:14;94651.91;;;23.56;47.82
40205;BME280;26963;42.666;23.366;2022-08-19T01:26:43;94641.28;;;23.40;47.12
40205;BME280;26963;42.666;23.366;2022-08-19T01:29:10;94695.72;;;23.78;46.65
40205;BME280;26963;42.666;23.366;2022-08-19T01:31:39;94709.78;;;23.87;47.17
40205;BME280;26963;42.666;23.366;2022-08-19T01:34:07;94648.28;;;23.34;47.34
40205;BME280;26963;42.666;23.366;2022-08-19T01:36:50;94707.03;;;23.84;46.92
40205;BME280;26963;42.666;23.366;2022-08-19T01:39:21;94696.44;;;23.68;47.42
40205;BME280;26963;42.666;23.366;2022-08-19T01:41:53;94612.63;;;23.09;47.85
40205;BME280;26963;42.666;23.366;2022-08-19T01:44:20;94718.31;;;23.71;48.15
40205;BME280;26963;42.666;23.366;2022-08-19T01:46:50;94703.44;;;23.61;47.69
40205;BME280;26963;42.666;23.366;2022-08-19T01:49:22;94715.94;;;23.70;48.15
40205;BME280;26963;42.666;23.366;2022-08-19T01:51:49;94697.19;;;23.57;48.15
40205;BME280;26963;42.666;23.366;2022-08-19T01:54:17;94672.06;;;23.34;48.54
40205;BME280;26963;42.666;23.366;2022-08-19T01:56:43;94655.59;;;23.16;48.25
40205;BME280;26963;42.666;23.366;2022-08-19T01:59:12;94699.53;;;23.59;48.45
40205;BME280;26963;42.666;23.366;2022-08-19T02:01:39;94708.91;;;23.61;48.67
40205;BME280;26963;42.666;23.366;2022-08-19T02:04:16;94708.84;;;23.54;48.94
40205;BME280;26963;42.666;23.366;2022-08-19T02:06:53;94711.19;;;23.56;48.49
40205;BME280;26963;42.666;23.366;2022-08-19T02:09:22;94707.63;;;23.48;48.60
40205;BME280;26963;42.666;23.366;2022-08-19T02:11:50;94701.78;;;23.42;48.47
40205;BME280;26963;42.666;23.366;2022-08-19T02:14:19;94708.78;;;23.47;48.34
40205;BME280;26963;42.666;23.366;2022-08-19T02:17:00;94671.22;;;23.22;48.44
40205;BME280;26963;42.666;23.366;2022-08-19T02:19:26;94699.00;;;23.39;48.81
40205;BME280;26963;42.666;23.366;2022-08-19T02:22:11;94688.06;;;23.35;48.99
40205;BME280;26963;42.666;23.366;2022-08-19T02:24:54;94703.31;;;23.40;49.21
40205;BME280;26963;42.666;23.366;2022-08-19T02:27:23;94701.69;;;23.32;49.19
40205;BME280;26963;42.666;23.366;2022-08-19T02:29:54;94685.13;;;23.10;49.30
40205;BME280;26963;42.666;23.366;2022-08-19T02:32:20;94661.25;;;22.96;49.14
40205;BME280;26963;42.666;23.366;2022-08-19T02:34:46;94692.16;;;23.11;49.43
40205;BME280;26963;42.666;23.366;2022-08-19T02:37:30;94681.13;;;22.96;49.83
40205;BME280;26963;42.666;23.366;2022-08-19T02:40:17;94703.84;;;23.11;49.77
40205;BME280;26963;42.666;23.366;2022-08-19T02:42:46;94632.53;;;22.57;49.26
40205;BME280;26963;42.666;23.366;2022-08-19T02:45:15;94710.81;;;23.02;49.58
40205;BME280;26963;42.666;23.366;2022-08-19T02:47:51;94709.19;;;22.93;49.83
40205;BME280;26963;42.666;23.366;2022-08-19T02:50:16;94726.00;;;22.99;49.99
40205;BME280;26963;42.666;23.366;2022-08-19T02:52:50;94685.66;;;22.74;50.14
40205;BME280;26963;42.666;23.366;2022-08-19T02:55:31;94686.41;;;22.75;49.78
40205;BME280;26963;42.666;23.366;2022-08-19T02:58:17;94736.56;;;23.08;50.09
40205;BME280;26963;42.666;23.366;2022-08-19T03:00:53;94701.75;;;22.90;49.75
40205;BME280;26963;42.666;23.366;2022-08-19T03:03:34;94730.38;;;23.11;50.03
40205;BME280;26963;42.666;23.366;2022-08-19T03:06:43;94731.09;;;23.08;49.78
40205;BME280;26963;42.666;23.366;2022-08-19T03:09:13;94714.63;;;22.93;49.82
40205;BME280;26963;42.666;23.366;2022-08-19T03:11:43;94723.19;;;22.92;49.68
40205;BME280;26963;42.666;23.366;2022-08-19T03:14:09;94715.34;;;22.83;50.57
40205;BME280;26963;42.666;23.366;2022-08-19T03:16:50;94715.72;;;22.82;50.47
40205;BME280;26963;42.666;23.366;2022-08-19T03:19:17;94653.41;;;22.39;50.72
40205;BME280;26963;42.666;23.366;2022-08-19T03:21:46;94618.84;;;22.12;50.79
40205;BME280;26963;42.666;23.366;2022-08-19T03:24:13;94615.66;;;22.03;50.97
40205;BME280;26963;42.666;23.366;2022-08-19T03:27:08;94705.03;;;22.66;51.12
40205;BME280;26963;42.666;23.366;2022-08-19T03:29:37;94670.06;;;22.34;51.07
40205;BME280;26963;42.666;23.366;2022-08-19T03:32:04;94722.94;;;22.63;51.70
40205;BME280;26963;42.666;23.366;2022-08-19T03:34:31;94728.34;;;22.59;51.57
40205;BME280;26963;42.666;23.366;2022-08-19T03:37:21;94665.63;;;22.22;51.52
40205;BME280;26963;42.666;23.366;2022-08-19T03:39:47;94716.56;;;22.48;51.77
40205;BME280;26963;42.666;23.366;2022-08-19T03:42:16;94670.22;;;22.14;51.54
40205;BME280;26963;42.666;23.366;2022-08-19T03:44:42;94664.38;;;22.12;51.77
40205;BME280;26963;42.666;23.366;2022-08-19T03:47:09;94729.84;;;22.53;51.36
40205;BME280;26963;42.666;23.366;2022-08-19T03:49:41;94735.63;;;22.48;51.87
40205;BME280;26963;42.666;23.366;2022-08-19T03:52:06;94720.44;;;22.47;51.56
40205;BME280;26963;42.666;23.366;2022-08-19T03:54:36;94744.78;;;22.67;51.45
40205;BME280;26963;42.666;23.366;2022-08-19T03:57:03;94698.94;;;22.38;51.20
40205;BME280;26963;42.666;23.366;2022-08-19T03:59:33;94737.34;;;22.63;51.30
40205;BME280;26963;42.666;23.366;2022-08-19T04:02:00;94739.25;;;22.59;51.34
40205;BME280;26963;42.666;23.366;2022-08-19T04:04:27;94743.63;;;22.68;51.37
40205;BME280;26963;42.666;23.366;2022-08-19T04:06:52;94749.59;;;22.80;50.90
40205;BME280;26963;42.666;23.366;2022-08-19T04:09:20;94761.00;;;22.93;50.77
40205;BME280;26963;42.666;23.366;2022-08-19T04:11:48;94684.53;;;22.38;50.97
40205;BME280;26963;42.666;23.366;2022-08-19T04:14:19;94743.69;;;22.71;51.61
40205;BME280;26963;42.666;23.366;2022-08-19T04:16:48;94703.69;;;22.45;51.65
40205;BME280;26963;42.666;23.366;2022-08-19T04:19:16;94749.97;;;22.79;51.08
40205;BME280;26963;42.666;23.366;2022-08-19T04:21:49;94717.78;;;22.54;51.25
40205;BME280;26963;42.666;23.366;2022-08-19T04:24:15;94682.44;;;22.27;51.64
40205;BME280;26963;42.666;23.366;2022-08-19T04:26:41;94744.44;;;22.72;51.66
40205;BME280;26963;42.666;23.366;2022-08-19T04:29:16;94761.28;;;22.81;51.69
40205;BME280;26963;42.666;23.366;2022-08-19T04:31:43;94756.28;;;22.87;51.57
40205;BME280;26963;42.666;23.366;2022-08-19T04:34:12;94607.59;;;21.80;51.63
40205;BME280;26963;42.666;23.366;2022-08-19T04:36:53;94716.28;;;22.60;51.27
40205;BME280;26963;42.666;23.366;2022-08-19T04:39:23;94763.66;;;22.86;51.00
40205;BME280;26963;42.666;23.366;2022-08-19T04:42:09;94756.69;;;22.89;50.51
40205;BME280;26963;42.666;23.366;2022-08-19T04:44:53;94739.19;;;22.93;50.47
40205;BME280;26963;42.666;23.366;2022-08-19T04:47:18;94770.22;;;23.16;50.53
40205;BME280;26963;42.666;23.366;2022-08-19T04:49:47;94748.38;;;23.16;50.37
40205;BME280;26963;42.666;23.366;2022-08-19T04:52:18;94753.63;;;23.39;50.03
40205;BME280;26963;42.666;23.366;2022-08-19T04:54:43;94750.09;;;23.42;49.17
40205;BME280;26963;42.666;23.366;2022-08-19T04:57:09;94744.69;;;23.45;47.74
40205;BME280;26963;42.666;23.366;2022-08-19T04:59:41;94765.88;;;23.67;47.48
40205;BME280;26963;42.666;23.366;2022-08-19T05:02:08;94632.63;;;22.72;47.75
40205;BME280;26963;42.666;23.366;2022-08-19T05:04:34;94765.78;;;23.52;49.01
40205;BME280;26963;42.666;23.366;2022-08-19T05:07:00;94778.69;;;23.55;49.58
40205;BME280;26963;42.666;23.366;2022-08-19T05:09:27;94724.63;;;23.20;50.27
40205;BME280;26963;42.666;23.366;2022-08-19T05:11:52;94762.56;;;23.39;50.43
40205;BME280;26963;42.666;23.366;2022-08-19T05:14:23;94751.63;;;23.36;48.90
40205;BME280;26963;42.666;23.366;2022-08-19T05:16:51;94782.16;;;23.52;49.07
40205;BME280;26963;42.666;23.366;2022-08-19T05:19:17;94763.78;;;23.45;49.46
40205;BME280;26963;42.666;23.366;2022-08-19T05:22:01;94748.09;;;23.32;49.01
40205;BME280;26963;42.666;23.366;2022-08-19T05:24:48;94777.47;;;23.49;48.80
40205;BME280;26963;42.666;23.366;2022-08-19T05:27:19;94721.03;;;23.12;50.29
40205;BME280;26963;42.666;23.366;2022-08-19T05:29:44;94732.03;;;23.23;50.47
40205;BME280;26963;42.666;23.366;2022-08-19T05:32:15;94778.38;;;23.68;49.85
40205;BME280;26963;42.666;23.366;2022-08-19T05:34:44;94777.22;;;23.72;49.78
40205;BME280;26963;42.666;23.366;2022-08-19T05:37:23;94779.25;;;23.86;51.27
40205;BME280;26963;42.666;23.366;2022-08-19T05:39:54;94786.38;;;23.94;50.55
40205;BME280;26963;42.666;23.366;2022-08-19T05:42:23;94785.59;;;23.98;50.94
40205;BME280;26963;42.666;23.366;2022-08-19T05:44:49;94729.25;;;23.71;51.35
40205;BME280;26963;42.666;23.366;2022-08-19T05:47:15;94743.31;;;23.77;49.10
40205;BME280;26963;42.666;23.366;2022-08-19T05:49:42;94735.53;;;23.83;50.42
40205;BME280;26963;42.666;23.366;2022-08-19T05:52:10;94786.47;;;24.16;50.16
40205;BME280;26963;42.666;23.366;2022-08-19T05:54:43;94776.34;;;24.20;48.20
40205;BME280;26963;42.666;23.366;2022-08-19T05:57:12;94745.47;;;24.16;47.18
40205;BME280;26963;42.666;23.366;2022-08-19T05:59:38;94777.97;;;24.43;47.03
40205;BME280;26963;42.666;23.366;2022-08-19T06:02:04;94782.69;;;24.53;48.42
40205;BME280;26963;42.666;23.366;2022-08-19T06:04:30;94765.91;;;24.51;46.88
40205;BME280;26963;42.666;23.366;2022-08-19T06:06:56;94714.59;;;24.08;47.65
40205;BME280;26963;42.666;23.366;2022-08-19T06:09:22;94781.22;;;24.67;49.19
40205;BME280;26963;42.666;23.366;2022-08-19T06:11:53;94722.50;;;24.39;48.69
40205;BME280;26963;42.666;23.366;2022-08-19T06:14:28;94734.66;;;24.59;49.08
40205;BME280;26963;42.666;23.366;2022-08-19T06:16:57;94785.19;;;24.95;48.00
40205;BME280;26963;42.666;23.366;2022-08-19T06:19:28;94785.19;;;25.02;48.29
40205;BME280;26963;42.666;23.366;2022-08-19T06:21:59;94777.00;;;25.02;46.53
40205;BME280;26963;42.666;23.366;2022-08-19T06:24:26;94732.81;;;24.85;46.29
40205;BME280;26963;42.666;23.366;2022-08-19T06:26:56;94740.59;;;24.94;45.51
40205;BME280;26963;42.666;23.366;2022-08-19T06:29:24;94783.66;;;25.22;45.82
40205;BME280;26963;42.666;23.366;2022-08-19T06:31:54;94730.06;;;24.92;45.76
40205;BME280;26963;42.666;23.366;2022-08-19T06:34:24;94768.78;;;25.63;44.93
40205;BME280;26963;42.666;23.366;2022-08-19T06:37:00;94772.44;;;27.72;40.79
40205;BME280;26963;42.666;23.366;2022-08-19T06:39:29;94782.16;;;29.39;36.96
40205;BME280;26963;42.666;23.366;2022-08-19T06:41:57;94777.50;;;30.67;34.87
40205;BME280;26963;42.666;23.366;2022-08-19T06:44:25;94772.41;;;31.85;32.53
40205;BME280;26963;42.666;23.366;2022-08-19T06:46:53;94779.00;;;32.63;31.36
40205;BME280;26963;42.666;23.366;2022-08-19T06:49:18;94770.66;;;33.18;30.04
40205;BME280;26963;42.666;23.366;2022-08-19T06:51:45;94767.66;;;34.21;28.97
40205;BME280;26963;42.666;23.366;2022-08-19T06:54:18;94682.09;;;34.51;28.21
40205;BME280;26963;42.666;23.366;2022-08-19T06:56:44;94788.81;;;35.76;26.33
40205;BME280;26963;42.666;23.366;2022-08-19T06:59:13;94744.63;;;35.87;25.35
40205;BME280;26963;42.666;23.366;2022-08-19T07:01:44;94738.13;;;36.09;25.39
40205;BME280;26963;42.666;23.366;2022-08-19T07:04:13;94727.59;;;36.50;24.50
40205;BME280;26963;42.666;23.366;2022-08-19T07:06:41;94753.84;;;36.86;23.77
40205;BME280;26963;42.666;23.366;2022-08-19T07:09:13;94773.31;;;36.96;23.97
40205;BME280;26963;42.666;23.366;2022-08-19T07:11:46;94785.16;;;37.15;23.31
40205;BME280;26963;42.666;23.366;2022-08-19T07:14:13;94782.94;;;37.62;23.48
40205;BME280;26963;42.666;23.366;2022-08-19T07:16:39;94792.31;;;37.83;22.96
40205;BME280;26963;42.666;23.366;2022-08-19T07:19:05;94789.72;;;38.18;22.29
40205;BME280;26963;42.666;23.366;2022-08-19T07:21:38;94785.38;;;38.57;22.49
40205;BME280;26963;42.666;23.366;2022-08-19T07:24:07;94797.03;;;39.30;21.42
40205;BME280;26963;42.666;23.366;2022-08-19T07:26:38;94772.34;;;39.64;21.16
40205;BME280;26963;42.666;23.366;2022-08-19T07:29:10;94790.34;;;40.40;20.49
40205;BME280;26963;42.666;23.366;2022-08-19T07:31:36;94762.22;;;40.55;19.62
40205;BME280;26963;42.666;23.366;2022-08-19T07:34:08;94781.66;;;41.17;19.24
40205;BME280;26963;42.666;23.366;2022-08-19T07:36:52;94746.13;;;41.46;18.45
40205;BME280;26963;42.666;23.366;2022-08-19T07:39:25;94788.63;;;42.14;18.27
40205;BME280;26963;42.666;23.366;2022-08-19T07:42:01;94749.38;;;41.82;17.60
40205;BME280;26963;42.666;23.366;2022-08-19T07:44:29;94774.06;;;41.66;18.23
40205;BME280;26963;42.666;23.366;2022-08-19T07:47:00;94777.72;;;41.78;18.21
40205;BME280;26963;42.666;23.366;2022-08-19T07:49:27;94747.13;;;41.86;17.97
40205;BME280;26963;42.666;23.366;2022-08-19T07:51:58;94790.78;;;42.42;17.76
40205;BME280;26963;42.666;23.366;2022-08-19T07:54:33;94765.53;;;42.81;18.11
40205;BME280;26963;42.666;23.366;2022-08-19T07:56:59;94785.47;;;43.46;17.35
40205;BME280;26963;42.666;23.366;2022-08-19T08:01:55;94750.13;;;43.73;15.65
40205;BME280;26963;42.666;23.366;2022-08-19T08:04:21;94749.66;;;43.52;15.76
40205;BME280;26963;42.666;23.366;2022-08-19T08:07:23;94786.41;;;43.99;16.22
40205;BME280;26963;42.666;23.366;2022-08-19T08:10:07;94778.16;;;44.13;15.98
40205;BME280;26963;42.666;23.366;2022-08-19T08:12:37;94739.50;;;44.02;15.36
40205;BME280;26963;42.666;23.366;2022-08-19T08:15:09;94769.22;;;44.09;16.03
40205;BME280;26963;42.666;23.366;2022-08-19T08:17:35;94768.53;;;43.80;15.92
40205;BME280;26963;42.666;23.366;2022-08-19T08:20:03;94775.81;;;44.23;16.07
40205;BME280;26963;42.666;23.366;2022-08-19T08:22:35;94729.44;;;44.18;15.45
40205;BME280;26963;42.666;23.366;2022-08-19T08:25:22;94773.97;;;44.78;15.34
40205;BME280;26963;42.666;23.366;2022-08-19T08:27:49;94773.03;;;45.01;14.87
40205;BME280;26963;42.666;23.366;2022-08-19T08:30:19;94774.97;;;45.17;14.41
40205;BME280;26963;42.666;23.366;2022-08-19T08:32:45;94775.22;;;45.19;14.79
40205;BME280;26963;42.666;23.366;2022-08-19T08:35:23;94770.00;;;45.29;14.77
40205;BME280;26963;42.666;23.366;2022-08-19T08:37:52;94773.00;;;45.37;14.98
40205;BME280;26963;42.666;23.366;2022-08-19T08:43:07;94771.19;;;45.03;14.83
40205;BME280;26963;42.666;23.366;2022-08-19T08:45:43;94712.09;;;44.86;14.53
40205;BME280;26963;42.666;23.366;2022-08-19T08:48:20;94750.69;;;44.67;14.55
40205;BME280;26963;42.666;23.366;2022-08-19T08:50:49;94716.28;;;43.79;15.43
40205;BME280;26963;42.666;23.366;2022-08-19T08:53:18;94739.00;;;43.98;15.63
40205;BME280;26963;42.666;23.366;2022-08-19T08:55:44;94722.16;;;43.92;15.02
40205;BME280;26963;42.666;23.366;2022-08-19T08:58:24;94724.38;;;43.99;15.46
40205;BME280;26963;42.666;23.366;2022-08-19T09:00:51;94709.00;;;44.06;15.25
40205;BME280;26963;42.666;23.366;2022-08-19T09:03:26;94740.84;;;43.84;14.89
40205;BME280;26963;42.666;23.366;2022-08-19T09:06:00;94743.50;;;43.48;14.81
40205;BME280;26963;42.666;23.366;2022-08-19T09:11:23;94731.63;;;41.53;16.50
40205;BME280;26963;42.666;23.366;2022-08-19T09:16:57;94693.16;;;39.22;18.53
40205;BME280;26963;42.666;23.366;2022-08-19T09:19:23;94688.91;;;38.46;19.43
40205;BME280;26963;42.666;23.366;2022-08-19T09:21:49;94720.38;;;38.17;19.96
40205;BME280;26963;42.666;23.366;2022-08-19T09:24:16;94727.34;;;37.73;20.71
40205;BME280;26963;42.666;23.366;2022-08-19T09:26:44;94731.63;;;37.35;20.79
40205;BME280;26963;42.666;23.366;2022-08-19T09:29:13;94676.72;;;36.74;19.85
40205;BME280;26963;42.666;23.366;2022-08-19T09:31:39;94700.78;;;36.53;21.18
40205;BME280;26963;42.666;23.366;2022-08-19T09:34:04;94706.41;;;36.44;21.66
40205;BME280;26963;42.666;23.366;2022-08-19T09:36:48;94675.00;;;36.15;19.45
40205;BME280;26963;42.666;23.366;2022-08-19T09:39:18;94657.41;;;36.00;19.28
40205;BME280;26963;42.666;23.366;2022-08-19T09:41:44;94650.63;;;35.64;19.85
40205;BME280;26963;42.666;23.366;2022-08-19T09:44:09;94674.09;;;35.63;20.53
40205;BME280;26963;42.666;23.366;2022-08-19T09:46:41;94568.16;;;34.83;20.37
40205;BME280;26963;42.666;23.366;2022-08-19T09:49:06;94678.09;;;35.43;20.44
40205;BME280;26963;42.666;23.366;2022-08-19T09:51:35;94658.44;;;35.28;19.77
40205;BME280;26963;42.666;23.366;2022-08-19T09:54:06;94679.19;;;35.36;20.64
40205;BME280;26963;42.666;23.366;2022-08-19T09:56:37;94602.59;;;34.85;21.18
40205;BME280;26963;42.666;23.366;2022-08-19T09:59:14;94665.69;;;35.25;20.23
40205;BME280;26963;42.666;23.366;2022-08-19T10:01:43;94699.13;;;35.53;21.11
40205;BME280;26963;42.666;23.366;2022-08-19T10:04:08;94677.66;;;35.54;21.23
40205;BME280;26963;42.666;23.366;2022-08-19T10:06:38;94695.88;;;35.73;20.70
40205;BME280;26963;42.666;23.366;2022-08-19T10:09:09;94693.44;;;35.75;20.88
40205;BME280;26963;42.666;23.366;2022-08-19T10:11:39;94684.00;;;35.73;20.55
40205;BME280;26963;42.666;23.366;2022-08-19T10:14:05;94664.34;;;35.67;20.29
40205;BME280;26963;42.666;23.366;2022-08-19T10:16:36;94641.91;;;35.34;20.47
40205;BME280;26963;42.666;23.366;2022-08-19T10:19:02;94666.53;;;35.45;20.69
40205;BME280;26963;42.666;23.366;2022-08-19T10:21:32;94680.13;;;35.52;20.45
40205;BME280;26963;42.666;23.366;2022-08-19T10:24:00;94686.47;;;35.52;20.70
40205;BME280;26963;42.666;23.366;2022-08-19T10:26:33;94672.53;;;35.43;20.86
40205;BME280;26963;42.666;23.366;2022-08-19T10:29:04;94676.56;;;35.42;20.69
40205;BME280;26963;42.666;23.366;2022-08-19T10:31:33;94661.25;;;35.37;21.43
40205;BME280;26963;42.666;23.366;2022-08-19T10:34:01;94659.22;;;35.28;21.26
40205;BME280;26963;42.666;23.366;2022-08-19T10:36:43;94661.38;;;35.24;20.91
40205;BME280;26963;42.666;23.366;2022-08-19T10:39:11;94663.53;;;35.30;21.21
40205;BME280;26963;42.666;23.366;2022-08-19T10:41:40;94666.31;;;35.30;21.53
40205;BME280;26963;42.666;23.366;2022-08-19T10:44:13;94613.13;;;35.00;21.24
40205;BME280;26963;42.666;23.366;2022-08-19T10:46:44;94643.13;;;35.23;21.49
40205;BME280;26963;42.666;23.366;2022-08-19T10:49:13;94658.94;;;35.36;21.64
40205;BME280;26963;42.666;23.366;2022-08-19T10:51:39;94664.44;;;35.26;21.28
40205;BME280;26963;42.666;23.366;2022-08-19T10:54:25;94660.41;;;35.09;21.46
40205;BME280;26963;42.666;23.366;2022-08-19T10:57:14;94617.50;;;34.69;21.08
40205;BME280;26963;42.666;23.366;2022-08-19T10:59:39;94657.75;;;34.96;21.95
40205;BME280;26963;42.666;23.366;2022-08-19T11:02:07;94653.13;;;34.93;21.32
40205;BME280;26963;42.666;23.366;2022-08-19T11:04:38;94649.50;;;34.83;21.46
40205;BME280;26963;42.666;23.366;2022-08-19T11:07:09;94651.06;;;34.84;21.67
40205;BME280;26963;42.666;23.366;2022-08-19T11:09:41;94644.38;;;34.72;21.95
40205;BME280;26963;42.666;23.366;2022-08-19T11:12:08;94634.31;;;34.66;21.99
40205;BME280;26963;42.666;23.366;2022-08-19T11:14:47;94598.09;;;34.38;22.37
40205;BME280;26963;42.666;23.366;2022-08-19T11:17:17;94647.31;;;34.78;22.37
40205;BME280;26963;42.666;23.366;2022-08-19T11:19:56;94652.25;;;34.74;22.16
40205;BME280;26963;42.666;23.366;2022-08-19T11:22:27;94647.94;;;34.73;22.76
40205;BME280;26963;42.666;23.366;2022-08-19T11:24:52;94627.19;;;34.55;22.64
40205;BME280;26963;42.666;23.366;2022-08-19T11:27:18;94643.56;;;34.62;21.88
40205;BME280;26963;42.666;23.366;2022-08-19T11:29:49;94638.78;;;34.63;22.62
40205;BME280;26963;42.666;23.366;2022-08-19T11:32:15;94626.22;;;34.49;22.15
40205;BME280;26963;42.666;23.366;2022-08-19T11:34:47;94627.50;;;34.57;22.87
40205;BME280;26963;42.666;23.366;2022-08-19T11:37:26;94590.78;;;34.31;22.57
40205;BME280;26963;42.666;23.366;2022-08-19T11:39:55;94586.94;;;34.28;22.67
40205;BME280;26963;42.666;23.366;2022-08-19T11:42:29;94609.84;;;34.42;22.63
